Time;durP1;ratioP1;P1;durP2;ratioP2;P2;SDS_P1;SDS_P2;PMS_P1;PMS_P2;Temp;Humidity;BMP_temperature;BMP_pressure;BME280_temperature;BME280_humidity;BME280_pressure;Samples;Min_cycle;Max_cycle;Signal;HPM_P1;HPM_P2
2023/09/08 00:01:31;;;;;;;4.93;4.37;;;;;;;;;;4915093;29;20230;-76
2023/09/08 00:03:57;;;;;;;5.67;4.57;;;;;;;;;;4912241;29;20242;-78
2023/09/08 00:06:23;;;;;;;5.60;4.33;;;;;;;;;;4915183;29;20698;-78
2023/09/08 00:08:49;;;;;;;4.97;4.47;;;;;;;;;;4909781;29;20778;-76
2023/09/08 00:11:15;;;;;;;5.00;4.50;;;;;;;;;;4913094;29;20685;-77
2023/09/08 00:13:41;;;;;;;4.70;4.20;;;;;;;;;;4914979;29;20190;-77
2023/09/08 00:16:07;;;;;;;5.70;4.70;;;;;;;;;;4917086;29;20210;-77
2023/09/08 00:18:34;;;;;;;6.87;4.50;;;;;;;;;;4915218;29;20546;-78
2023/09/08 00:21:00;;;;;;;5.90;4.77;;;;;;;;;;4912944;29;20194;-77
2023/09/08 00:23:28;;;;;;;4.83;4.07;;;;;;;;;;4915493;29;20693;-76
2023/09/08 00:25:54;;;;;;;5.23;4.13;;;;;;;;;;4914301;29;20254;-78
2023/09/08 00:28:20;;;;;;;5.40;4.10;;;;;;;;;;4913489;29;20186;-77
2023/09/08 00:30:46;;;;;;;5.73;4.73;;;;;;;;;;4916906;29;20187;-77
2023/09/08 00:33:13;;;;;;;5.17;4.40;;;;;;;;;;4913908;29;20211;-77
2023/09/08 00:35:39;;;;;;;5.97;4.47;;;;;;;;;;4898133;29;20214;-77
2023/09/08 00:38:06;;;;;;;5.03;4.50;;;;;;;;;;4914456;29;20651;-76
2023/09/08 00:40:32;;;;;;;4.77;4.10;;;;;;;;;;4881894;29;20198;-78
2023/09/08 00:42:58;;;;;;;7.00;4.40;;;;;;;;;;4918371;29;20557;-78
2023/09/08 00:45:27;;;;;;;4.70;4.20;;;;;;;;;;4913046;29;20305;-77
2023/09/08 00:47:53;;;;;;;5.97;4.07;;;;;;;;;;4911345;29;20269;-77
2023/09/08 00:50:19;;;;;;;5.60;4.10;;;;;;;;;;4914361;29;20214;-77
2023/09/08 00:52:45;;;;;;;4.43;4.03;;;;;;;;;;4912113;29;20174;-77
2023/09/08 00:55:11;;;;;;;5.40;4.47;;;;;;;;;;4916184;29;20218;-77
2023/09/08 00:57:37;;;;;;;5.27;4.60;;;;;;;;;;4914321;29;20285;-77
2023/09/08 01:00:05;;;;;;;4.40;4.00;;;;;;;;;;4898203;29;20182;-77
2023/09/08 01:02:32;;;;;;;7.97;4.30;;;;;;;;;;4913148;29;20202;-77
2023/09/08 01:04:59;;;;;;;4.67;4.27;;;;;;;;;;4912335;29;20215;-77
2023/09/08 01:07:26;;;;;;;6.00;4.17;;;;;;;;;;4930141;29;20273;-76
2023/09/08 01:09:52;;;;;;;5.00;4.50;;;;;;;;;;4910336;29;20685;-79
2023/09/08 01:12:19;;;;;;;4.77;4.37;;;;;;;;;;4910469;29;20211;-78
2023/09/08 01:14:45;;;;;;;5.00;4.53;;;;;;;;;;4912963;29;20225;-77
2023/09/08 01:17:14;;;;;;;5.13;4.63;;;;;;;;;;4929146;29;20186;-80
2023/09/08 01:19:42;;;;;;;6.00;4.60;;;;;;;;;;4920016;29;20226;-77
2023/09/08 01:22:28;;;;;;;5.23;4.20;;;;;;;;;;4915645;29;20208;-79
2023/09/08 01:25:07;;;;;;;5.57;4.50;;;;;;;;;;4896787;29;20253;-78
2023/09/08 01:27:34;;;;;;;5.57;4.37;;;;;;;;;;4913713;29;20208;-77
2023/09/08 01:30:00;;;;;;;5.70;4.47;;;;;;;;;;4918722;29;20193;-77
2023/09/08 01:32:27;;;;;;;6.47;4.60;;;;;;;;;;4902171;29;20187;-77
2023/09/08 01:34:53;;;;;;;7.00;4.50;;;;;;;;;;4914592;29;20297;-77
2023/09/08 01:37:22;;;;;;;6.60;4.60;;;;;;;;;;4911180;29;20183;-78
2023/09/08 01:39:48;;;;;;;6.10;4.40;;;;;;;;;;4911349;29;20227;-77
2023/09/08 01:42:14;;;;;;;6.37;4.90;;;;;;;;;;4909588;29;20200;-77
2023/09/08 01:44:41;;;;;;;5.20;4.70;;;;;;;;;;4907010;29;20211;-76
2023/09/08 01:47:07;;;;;;;7.00;5.13;;;;;;;;;;4910654;29;20182;-78
2023/09/08 01:49:33;;;;;;;5.20;4.70;;;;;;;;;;4914521;29;22115;-79
2023/09/08 01:51:59;;;;;;;5.70;5.20;;;;;;;;;;4912637;29;20183;-78
2023/09/08 01:54:25;;;;;;;6.17;5.57;;;;;;;;;;4906583;29;20411;-77
2023/09/08 01:56:51;;;;;;;6.67;5.27;;;;;;;;;;4911127;29;20183;-79
2023/09/08 01:59:17;;;;;;;5.60;5.00;;;;;;;;;;4895837;29;20700;-77
2023/09/08 02:01:44;;;;;;;5.60;5.00;;;;;;;;;;4911889;29;20175;-77
2023/09/08 02:04:10;;;;;;;5.47;4.77;;;;;;;;;;4912131;29;20273;-77
2023/09/08 02:06:36;;;;;;;6.00;5.40;;;;;;;;;;4910943;29;20206;-78
2023/09/08 02:09:02;;;;;;;5.73;4.90;;;;;;;;;;4916522;29;20241;-77
2023/09/08 02:11:28;;;;;;;5.30;4.63;;;;;;;;;;4910634;29;20187;-77
2023/09/08 02:13:54;;;;;;;6.20;5.07;;;;;;;;;;4913502;29;20214;-82
2023/09/08 02:16:20;;;;;;;6.67;5.20;;;;;;;;;;4905414;29;20206;-76
2023/09/08 02:18:51;;;;;;;5.43;4.87;;;;;;;;;;4915668;29;20271;-77
2023/09/08 02:21:17;;;;;;;6.20;4.93;;;;;;;;;;4912320;29;20187;-76
2023/09/08 02:23:43;;;;;;;5.20;4.70;;;;;;;;;;4914855;29;20572;-77
2023/09/08 02:26:10;;;;;;;6.53;5.33;;;;;;;;;;4913488;29;20265;-77
2023/09/08 02:28:36;;;;;;;6.80;5.33;;;;;;;;;;4913172;29;20199;-77
2023/09/08 02:31:03;;;;;;;7.27;5.20;;;;;;;;;;4911581;29;20262;-77
2023/09/08 02:33:29;;;;;;;7.03;4.80;;;;;;;;;;4918539;29;20266;-77
2023/09/08 02:35:55;;;;;;;5.37;4.87;;;;;;;;;;4915734;29;20682;-78
2023/09/08 02:38:21;;;;;;;6.40;5.10;;;;;;;;;;4898737;29;20182;-77
2023/09/08 02:40:47;;;;;;;5.43;4.90;;;;;;;;;;4913838;29;20213;-77
2023/09/08 02:43:14;;;;;;;6.07;5.47;;;;;;;;;;4918264;29;20178;-77
2023/09/08 02:45:41;;;;;;;6.97;5.37;;;;;;;;;;4917889;29;20271;-77
2023/09/08 02:48:07;;;;;;;5.80;5.20;;;;;;;;;;4916023;29;20198;-78
2023/09/08 02:50:34;;;;;;;5.20;4.70;;;;;;;;;;4909925;29;20199;-78
2023/09/08 02:53:00;;;;;;;7.73;5.53;;;;;;;;;;4913377;29;20187;-78
2023/09/08 02:55:26;;;;;;;6.13;5.53;;;;;;;;;;4932093;29;20225;-78
2023/09/08 02:57:52;;;;;;;7.27;6.57;;;;;;;;;;4912358;29;20194;-77
2023/09/08 03:00:18;;;;;;;8.50;7.00;;;;;;;;;;4926058;29;20187;-78
2023/09/08 03:02:44;;;;;;;7.50;6.77;;;;;;;;;;4917110;29;20186;-77
2023/09/08 03:05:10;;;;;;;8.80;6.43;;;;;;;;;;4919292;29;20263;-77
2023/09/08 03:07:38;;;;;;;7.37;6.37;;;;;;;;;;4943402;29;20230;-77
2023/09/08 03:10:05;;;;;;;7.40;5.93;;;;;;;;;;4920842;29;20903;-78
2023/09/08 03:12:31;;;;;;;7.23;6.17;;;;;;;;;;4918178;29;20196;-77
2023/09/08 03:14:58;;;;;;;6.03;5.50;;;;;;;;;;4915714;29;20329;-77
2023/09/08 03:17:24;;;;;;;6.57;5.87;;;;;;;;;;4897234;29;20195;-77
2023/09/08 03:19:50;;;;;;;6.60;6.00;;;;;;;;;;4905024;29;20212;-77
2023/09/08 03:22:17;;;;;;;6.83;6.17;;;;;;;;;;4917709;29;20293;-77
2023/09/08 03:24:43;;;;;;;6.87;6.23;;;;;;;;;;4913611;29;20288;-77
2023/09/08 03:27:09;;;;;;;7.27;6.57;;;;;;;;;;4918457;29;20182;-77
2023/09/08 03:29:35;;;;;;;7.33;6.30;;;;;;;;;;4924058;29;20204;-77
2023/09/08 03:32:01;;;;;;;7.83;6.40;;;;;;;;;;4922626;29;20692;-77
2023/09/08 03:34:28;;;;;;;6.60;6.00;;;;;;;;;;4906558;29;20210;-77
2023/09/08 03:36:55;;;;;;;6.83;5.87;;;;;;;;;;4922618;29;20178;-77
2023/09/08 03:39:21;;;;;;;7.20;6.37;;;;;;;;;;4912111;29;20183;-77
2023/09/08 03:41:47;;;;;;;7.77;7.00;;;;;;;;;;4917453;29;20210;-77
2023/09/08 03:44:13;;;;;;;8.17;7.37;;;;;;;;;;4916789;29;20269;-77
2023/09/08 03:46:39;;;;;;;8.50;6.97;;;;;;;;;;4914620;29;20221;-77
2023/09/08 03:49:07;;;;;;;8.63;7.17;;;;;;;;;;4915643;29;20186;-77
2023/09/08 03:51:33;;;;;;;7.90;7.10;;;;;;;;;;4928645;29;20190;-77
2023/09/08 03:53:59;;;;;;;10.40;7.90;;;;;;;;;;4920135;29;20183;-78
2023/09/08 03:56:26;;;;;;;8.37;7.57;;;;;;;;;;4916229;29;20234;-77
2023/09/08 03:58:52;;;;;;;8.87;7.97;;;;;;;;;;4902579;29;20236;-77
2023/09/08 04:01:18;;;;;;;8.43;7.63;;;;;;;;;;4933260;29;20182;-77
2023/09/08 04:03:44;;;;;;;8.77;7.90;;;;;;;;;;4901969;29;20220;-77
2023/09/08 04:06:11;;;;;;;9.27;8.00;;;;;;;;;;4916831;29;20230;-77
2023/09/08 04:08:37;;;;;;;9.10;7.70;;;;;;;;;;4917046;29;20564;-77
2023/09/08 04:11:03;;;;;;;9.93;7.73;;;;;;;;;;4914618;29;20226;-77
2023/09/08 04:13:29;;;;;;;9.63;7.47;;;;;;;;;;4912317;29;20261;-77
2023/09/08 04:15:56;;;;;;;8.83;7.73;;;;;;;;;;4911617;29;20273;-77
2023/09/08 04:18:22;;;;;;;8.67;7.53;;;;;;;;;;4914000;29;20233;-77
2023/09/08 04:20:48;;;;;;;8.80;7.77;;;;;;;;;;4918960;29;20258;-77
2023/09/08 04:23:15;;;;;;;8.43;7.53;;;;;;;;;;4918350;29;20218;-78
2023/09/08 04:25:41;;;;;;;8.53;7.60;;;;;;;;;;4914673;29;20214;-77
2023/09/08 04:28:07;;;;;;;8.47;6.90;;;;;;;;;;4918284;29;20198;-77
2023/09/08 04:30:33;;;;;;;7.47;6.70;;;;;;;;;;4923201;29;20265;-77
2023/09/08 04:33:00;;;;;;;8.00;7.13;;;;;;;;;;4915846;29;20206;-78
2023/09/08 04:35:26;;;;;;;7.30;6.67;;;;;;;;;;4914953;29;20336;-78
2023/09/08 04:37:53;;;;;;;9.97;7.53;;;;;;;;;;4918113;29;20190;-77
2023/09/08 04:40:19;;;;;;;7.33;6.53;;;;;;;;;;4912520;29;20654;-77
2023/09/08 04:42:45;;;;;;;6.87;6.10;;;;;;;;;;4930080;29;20187;-77
2023/09/08 04:45:13;;;;;;;7.57;6.70;;;;;;;;;;4893404;29;20887;-77
2023/09/08 04:47:39;;;;;;;7.57;6.83;;;;;;;;;;4922276;29;20667;-78
2023/09/08 04:50:06;;;;;;;6.97;6.30;;;;;;;;;;4916483;29;20189;-77
2023/09/08 04:52:32;;;;;;;7.30;6.60;;;;;;;;;;4922894;29;20264;-78
2023/09/08 04:55:00;;;;;;;7.30;6.60;;;;;;;;;;4896723;29;20248;-77
2023/09/08 04:57:27;;;;;;;8.13;6.67;;;;;;;;;;4915391;29;20255;-77
2023/09/08 04:59:57;;;;;;;8.87;7.03;;;;;;;;;;4918732;29;20241;-78
2023/09/08 05:02:23;;;;;;;7.60;6.90;;;;;;;;;;4910988;29;20186;-78
2023/09/08 05:04:49;;;;;;;10.60;7.27;;;;;;;;;;4923054;29;20535;-78
2023/09/08 05:07:18;;;;;;;8.27;7.17;;;;;;;;;;4900102;29;20274;-77
2023/09/08 05:09:44;;;;;;;11.77;7.43;;;;;;;;;;4912392;29;20198;-77
2023/09/08 05:12:11;;;;;;;9.30;7.40;;;;;;;;;;4896833;29;20258;-77
2023/09/08 05:14:37;;;;;;;8.60;7.80;;;;;;;;;;4914432;29;20218;-77
2023/09/08 05:17:04;;;;;;;8.47;7.67;;;;;;;;;;4901692;29;20231;-77
2023/09/08 05:19:31;;;;;;;8.53;7.70;;;;;;;;;;4922888;29;20286;-77
2023/09/08 05:21:57;;;;;;;7.93;7.20;;;;;;;;;;4920239;29;20189;-77
2023/09/08 05:24:25;;;;;;;8.27;7.40;;;;;;;;;;4911572;29;20661;-77
2023/09/08 05:26:51;;;;;;;9.70;8.27;;;;;;;;;;4919880;29;20205;-77
2023/09/08 05:29:18;;;;;;;10.47;8.70;;;;;;;;;;4924899;29;20194;-77
2023/09/08 05:31:44;;;;;;;10.57;8.30;;;;;;;;;;4925982;29;20210;-77
2023/09/08 05:34:11;;;;;;;10.10;8.80;;;;;;;;;;4914313;29;20481;-77
2023/09/08 05:36:39;;;;;;;9.33;8.43;;;;;;;;;;4919694;29;20297;-77
2023/09/08 05:39:07;;;;;;;10.10;8.97;;;;;;;;;;4903789;29;20578;-77
2023/09/08 05:41:34;;;;;;;10.67;9.50;;;;;;;;;;4897066;29;20190;-78
2023/09/08 05:44:01;;;;;;;12.50;9.37;;;;;;;;;;4898093;29;20255;-78
2023/09/08 05:46:28;;;;;;;12.27;8.80;;;;;;;;;;4910957;29;20237;-78
2023/09/08 05:48:54;;;;;;;9.80;8.80;;;;;;;;;;4911991;29;20221;-77
2023/09/08 05:51:20;;;;;;;10.07;9.00;;;;;;;;;;4909675;29;20194;-77
2023/09/08 05:53:46;;;;;;;9.60;8.60;;;;;;;;;;4897115;29;20226;-77
2023/09/08 05:56:14;;;;;;;9.50;8.60;;;;;;;;;;4903865;29;20236;-77
2023/09/08 05:58:42;;;;;;;8.90;7.73;;;;;;;;;;4908417;29;20190;-78
2023/09/08 06:01:09;;;;;;;11.30;8.40;;;;;;;;;;4896938;29;20190;-78
2023/09/08 06:03:35;;;;;;;10.20;8.23;;;;;;;;;;4895519;29;20197;-77
2023/09/08 06:06:02;;;;;;;9.30;8.27;;;;;;;;;;4905693;29;20215;-78
2023/09/08 06:08:28;;;;;;;8.33;7.60;;;;;;;;;;4904247;29;20226;-78
2023/09/08 06:10:54;;;;;;;9.70;8.17;;;;;;;;;;4912083;29;20592;-77
2023/09/08 06:13:21;;;;;;;9.97;8.47;;;;;;;;;;4912809;29;20186;-78
2023/09/08 06:15:47;;;;;;;8.93;8.03;;;;;;;;;;4912323;29;20218;-79
2023/09/08 06:18:14;;;;;;;9.23;8.17;;;;;;;;;;4914486;29;20206;-79
2023/09/08 06:20:44;;;;;;;8.43;7.53;;;;;;;;;;4915025;29;20197;-79
2023/09/08 06:23:10;;;;;;;8.43;7.60;;;;;;;;;;4905099;29;20237;-81
2023/09/08 06:25:37;;;;;;;9.93;7.57;;;;;;;;;;4885690;29;20221;-80
2023/09/08 06:28:03;;;;;;;7.53;6.83;;;;;;;;;;4917109;29;20274;-80
2023/09/08 06:30:29;;;;;;;8.90;8.00;;;;;;;;;;4921597;29;20225;-80
2023/09/08 06:32:56;;;;;;;9.20;7.87;;;;;;;;;;4907458;29;20201;-80
2023/09/08 06:35:23;;;;;;;10.43;8.60;;;;;;;;;;4896255;29;20206;-79
2023/09/08 06:37:49;;;;;;;11.23;7.97;;;;;;;;;;4902099;29;20187;-80
2023/09/08 06:40:16;;;;;;;8.83;7.57;;;;;;;;;;4909584;29;20182;-82
2023/09/08 06:42:42;;;;;;;8.07;7.20;;;;;;;;;;4916750;29;20229;-81
2023/09/08 06:45:17;;;;;;;8.40;7.53;;;;;;;;;;4918468;29;20285;-81
2023/09/08 06:47:44;;;;;;;8.73;7.43;;;;;;;;;;4924868;29;20197;-81
2023/09/08 06:50:10;;;;;;;8.83;7.70;;;;;;;;;;4897193;29;20190;-81
2023/09/08 06:52:37;;;;;;;10.77;8.57;;;;;;;;;;4913223;29;20202;-80
2023/09/08 06:55:04;;;;;;;10.93;8.67;;;;;;;;;;4891969;29;20218;-81
2023/09/08 06:57:31;;;;;;;8.43;7.63;;;;;;;;;;4912637;29;20230;-81
2023/09/08 06:59:57;;;;;;;14.47;8.20;;;;;;;;;;4903963;29;20222;-81
2023/09/08 07:02:23;;;;;;;8.00;7.30;;;;;;;;;;4890273;29;20218;-80
2023/09/08 07:04:50;;;;;;;10.17;7.93;;;;;;;;;;4913443;29;20206;-81
2023/09/08 07:07:18;;;;;;;8.07;7.10;;;;;;;;;;4920325;29;20246;-81
2023/09/08 07:09:44;;;;;;;9.63;6.93;;;;;;;;;;4918223;29;20209;-81
2023/09/08 07:12:10;;;;;;;7.57;6.77;;;;;;;;;;4918406;29;20185;-81
2023/09/08 07:14:38;;;;;;;6.40;5.80;;;;;;;;;;4917690;29;20225;-82
2023/09/08 07:17:04;;;;;;;6.20;5.60;;;;;;;;;;4919003;29;20191;-82
2023/09/08 07:19:30;;;;;;;7.43;5.43;;;;;;;;;;4904509;29;20235;-82
2023/09/08 07:21:57;;;;;;;7.23;5.50;;;;;;;;;;4901604;29;20656;-82
2023/09/08 07:24:24;;;;;;;6.80;5.17;;;;;;;;;;4901506;29;20811;-82
2023/09/08 07:26:51;;;;;;;5.83;4.87;;;;;;;;;;4902294;29;20281;-81
2023/09/08 07:29:17;;;;;;;5.57;5.07;;;;;;;;;;4918210;29;20267;-82
2023/09/08 07:31:43;;;;;;;5.37;4.80;;;;;;;;;;4902656;29;20190;-81
2023/09/08 07:34:10;;;;;;;7.40;5.23;;;;;;;;;;4915449;29;20194;-81
2023/09/08 07:36:37;;;;;;;7.73;4.90;;;;;;;;;;4899549;29;20214;-81
2023/09/08 07:39:04;;;;;;;5.20;4.70;;;;;;;;;;4914888;29;20182;-81
2023/09/08 07:41:30;;;;;;;7.60;5.10;;;;;;;;;;4898687;29;20185;-81
2023/09/08 07:43:56;;;;;;;5.83;4.30;;;;;;;;;;4886740;29;20190;-82
2023/09/08 07:46:24;;;;;;;5.17;4.63;;;;;;;;;;4908675;29;20662;-82
2023/09/08 07:48:50;;;;;;;5.70;5.20;;;;;;;;;;4918431;29;20277;-82
2023/09/08 07:51:40;;;;;;;5.73;4.80;;;;;;;;;;4911931;29;20225;-82
2023/09/08 07:54:07;;;;;;;5.00;4.50;;;;;;;;;;4908940;29;20194;-82
2023/09/08 07:56:33;;;;;;;5.50;4.53;;;;;;;;;;4906186;29;20214;-82
2023/09/08 07:58:59;;;;;;;6.87;5.23;;;;;;;;;;4914387;29;20229;-82
2023/09/08 08:01:25;;;;;;;5.07;4.60;;;;;;;;;;4898209;29;20195;-82
2023/09/08 08:03:51;;;;;;;5.43;4.93;;;;;;;;;;4912021;29;20209;-82
2023/09/08 08:06:18;;;;;;;5.10;4.60;;;;;;;;;;4928854;29;20625;-82
2023/09/08 08:08:44;;;;;;;5.33;4.83;;;;;;;;;;4913009;29;20626;-82
2023/09/08 08:11:11;;;;;;;7.30;4.53;;;;;;;;;;4881330;29;20183;-82
2023/09/08 08:13:37;;;;;;;5.40;4.90;;;;;;;;;;4896609;29;20195;-82
2023/09/08 08:16:03;;;;;;;5.50;5.00;;;;;;;;;;4893295;29;20219;-82
2023/09/08 08:18:29;;;;;;;5.37;4.87;;;;;;;;;;4926616;29;20277;-82
2023/09/08 08:20:56;;;;;;;6.50;4.80;;;;;;;;;;4912416;29;20202;-82
2023/09/08 08:23:22;;;;;;;6.07;5.47;;;;;;;;;;4911222;29;20691;-82
2023/09/08 08:25:49;;;;;;;5.87;4.63;;;;;;;;;;4916330;29;20717;-81
2023/09/08 08:28:15;;;;;;;5.23;4.73;;;;;;;;;;4913196;29;20179;-81
2023/09/08 08:30:41;;;;;;;8.60;5.67;;;;;;;;;;4895524;29;20191;-81
2023/09/08 08:33:08;;;;;;;6.77;5.77;;;;;;;;;;4908963;29;20522;-81
2023/09/08 08:35:34;;;;;;;7.73;5.53;;;;;;;;;;4906756;29;20221;-81
2023/09/08 08:38:00;;;;;;;6.63;5.27;;;;;;;;;;4915656;29;20664;-81
2023/09/08 08:40:27;;;;;;;6.37;5.77;;;;;;;;;;4908347;29;20657;-81
2023/09/08 08:42:57;;;;;;;6.00;5.40;;;;;;;;;;4910569;29;20186;-81
2023/09/08 08:45:24;;;;;;;6.57;5.93;;;;;;;;;;4909929;29;21185;-81
2023/09/08 08:47:52;;;;;;;6.47;5.77;;;;;;;;;;4907887;29;20187;-81
2023/09/08 08:50:18;;;;;;;6.93;6.00;;;;;;;;;;4908692;29;20214;-80
2023/09/08 08:52:44;;;;;;;6.77;5.93;;;;;;;;;;4893258;29;20278;-78
2023/09/08 08:55:12;;;;;;;7.63;6.60;;;;;;;;;;4910503;29;20228;-82
2023/09/08 08:57:39;;;;;;;7.30;5.80;;;;;;;;;;4908166;29;20214;-80
2023/09/08 09:00:09;;;;;;;9.70;5.90;;;;;;;;;;4913974;29;20191;-81
2023/09/08 09:02:36;;;;;;;6.20;5.60;;;;;;;;;;4911126;29;20620;-81
2023/09/08 09:05:04;;;;;;;9.27;6.23;;;;;;;;;;4909564;29;20746;-82
2023/09/08 09:07:30;;;;;;;6.40;5.80;;;;;;;;;;4912063;29;20214;-83
2023/09/08 09:09:56;;;;;;;7.63;6.63;;;;;;;;;;4924942;29;20285;-79
2023/09/08 09:12:22;;;;;;;7.87;5.90;;;;;;;;;;4914948;29;20185;-81
2023/09/08 09:14:53;;;;;;;6.37;5.67;;;;;;;;;;4912503;29;20218;-85
2023/09/08 09:17:19;;;;;;;9.00;5.87;;;;;;;;;;4924991;29;20182;-86
2023/09/08 09:19:45;;;;;;;6.10;5.60;;;;;;;;;;4901900;29;20217;-86
2023/09/08 09:22:11;;;;;;;7.70;6.00;;;;;;;;;;4908121;29;20178;-83
2023/09/08 09:24:40;;;;;;;6.60;5.90;;;;;;;;;;4916580;29;20206;-83
2023/09/08 09:27:07;;;;;;;6.43;5.53;;;;;;;;;;4909531;29;20187;-84
2023/09/08 09:29:34;;;;;;;6.73;6.00;;;;;;;;;;4911192;29;20230;-85
2023/09/08 09:32:05;;;;;;;8.17;6.50;;;;;;;;;;4911942;29;20564;-86
2023/09/08 09:34:31;;;;;;;6.70;6.00;;;;;;;;;;4901138;29;20223;-82
2023/09/08 09:36:58;;;;;;;6.53;5.57;;;;;;;;;;4914537;29;20791;-80
2023/09/08 09:39:25;;;;;;;6.57;5.87;;;;;;;;;;4910743;29;20196;-83
2023/09/08 09:41:55;;;;;;;8.97;5.97;;;;;;;;;;4893202;29;20748;-79
2023/09/08 09:44:21;;;;;;;7.23;5.70;;;;;;;;;;4911021;29;20191;-80
2023/09/08 09:46:48;;;;;;;10.17;6.23;;;;;;;;;;4908787;29;20266;-83
2023/09/08 09:49:17;;;;;;;9.57;6.60;;;;;;;;;;4910377;29;20182;-84
2023/09/08 09:51:44;;;;;;;11.70;6.60;;;;;;;;;;4906383;29;20539;-83
2023/09/08 09:54:10;;;;;;;8.80;6.10;;;;;;;;;;4895191;29;20275;-83
2023/09/08 09:56:38;;;;;;;6.50;5.83;;;;;;;;;;4880285;29;20659;-84
2023/09/08 09:59:05;;;;;;;7.10;6.13;;;;;;;;;;4908420;29;20805;-83
2023/09/08 10:01:31;;;;;;;6.37;5.70;;;;;;;;;;4912512;29;20218;-83
2023/09/08 10:03:58;;;;;;;6.80;6.13;;;;;;;;;;4901561;29;20198;-83
2023/09/08 10:06:26;;;;;;;9.40;6.20;;;;;;;;;;4911185;29;20212;-84
2023/09/08 10:08:52;;;;;;;6.70;6.00;;;;;;;;;;4905727;29;20671;-83
2023/09/08 10:11:20;;;;;;;6.93;6.30;;;;;;;;;;4908024;29;20182;-84
2023/09/08 10:13:47;;;;;;;6.80;6.20;;;;;;;;;;4912415;29;20273;-83
2023/09/08 10:16:16;;;;;;;7.90;6.17;;;;;;;;;;4909089;29;20618;-83
2023/09/08 10:18:45;;;;;;;6.83;6.00;;;;;;;;;;4912042;29;20206;-84
2023/09/08 10:21:12;;;;;;;8.40;5.93;;;;;;;;;;4905007;29;20205;-83
2023/09/08 10:23:42;;;;;;;6.70;6.10;;;;;;;;;;4909432;29;20199;-83
2023/09/08 10:26:10;;;;;;;6.93;6.27;;;;;;;;;;4923699;29;20728;-84
2023/09/08 10:28:37;;;;;;;8.07;5.67;;;;;;;;;;4913287;29;20715;-83
2023/09/08 10:31:04;;;;;;;8.33;6.13;;;;;;;;;;4888631;29;20196;-84
2023/09/08 10:33:31;;;;;;;7.60;6.20;;;;;;;;;;4911165;29;20186;-84
2023/09/08 10:35:58;;;;;;;7.13;6.30;;;;;;;;;;4908260;29;20304;-83
2023/09/08 10:38:24;;;;;;;6.27;5.70;;;;;;;;;;4907176;29;20187;-83
2023/09/08 10:40:51;;;;;;;7.00;6.30;;;;;;;;;;4912335;29;20209;-83
2023/09/08 10:43:18;;;;;;;7.80;6.07;;;;;;;;;;4909968;29;20186;-83
2023/09/08 10:45:45;;;;;;;6.90;6.20;;;;;;;;;;4905567;29;20204;-83
2023/09/08 10:48:13;;;;;;;6.80;6.10;;;;;;;;;;4911113;29;20214;-82
2023/09/08 10:50:43;;;;;;;7.10;6.40;;;;;;;;;;4928490;29;20190;-82
2023/09/08 10:53:10;;;;;;;8.17;6.43;;;;;;;;;;4918127;29;20183;-77
2023/09/08 10:55:37;;;;;;;8.00;6.50;;;;;;;;;;4906421;29;20217;-78
2023/09/08 10:58:05;;;;;;;6.73;6.03;;;;;;;;;;4909854;29;20195;-78
2023/09/08 11:00:43;;;;;;;8.17;6.23;;;;;;;;;;4914970;29;20264;-78
2023/09/08 11:03:09;;;;;;;6.53;5.83;;;;;;;;;;4906466;29;20280;-77
2023/09/08 11:05:35;;;;;;;6.33;5.73;;;;;;;;;;4909261;29;20279;-78
2023/09/08 11:08:03;;;;;;;7.83;6.03;;;;;;;;;;4905382;29;20190;-78
2023/09/08 11:10:31;;;;;;;7.57;6.30;;;;;;;;;;4908293;29;20753;-78
2023/09/08 11:12:57;;;;;;;7.07;5.93;;;;;;;;;;4909954;29;20658;-77
2023/09/08 11:15:23;;;;;;;6.13;5.57;;;;;;;;;;4904442;29;20214;-77
2023/09/08 11:17:50;;;;;;;7.30;6.30;;;;;;;;;;4909489;29;20193;-78
2023/09/08 11:20:17;;;;;;;7.33;6.23;;;;;;;;;;4913484;29;20671;-77
2023/09/08 11:22:45;;;;;;;6.23;5.70;;;;;;;;;;4906289;29;20238;-78
2023/09/08 11:25:11;;;;;;;6.93;6.10;;;;;;;;;;4907016;29;20205;-78
2023/09/08 11:27:40;;;;;;;6.60;6.00;;;;;;;;;;4916124;29;20289;-78
2023/09/08 11:30:08;;;;;;;6.20;5.60;;;;;;;;;;4916582;29;20219;-77
2023/09/08 11:32:34;;;;;;;6.33;5.77;;;;;;;;;;4907510;29;20192;-79
2023/09/08 11:35:08;;;;;;;6.80;6.00;;;;;;;;;;4918180;29;20352;-78
2023/09/08 11:37:35;;;;;;;6.80;6.03;;;;;;;;;;4909960;29;20321;-79
2023/09/08 11:40:03;;;;;;;10.03;6.10;;;;;;;;;;4909437;29;20208;-77
2023/09/08 11:42:29;;;;;;;6.20;5.70;;;;;;;;;;4915062;29;20673;-78
2023/09/08 11:44:58;;;;;;;6.30;5.70;;;;;;;;;;4909987;29;20650;-78
2023/09/08 11:47:25;;;;;;;6.17;5.57;;;;;;;;;;4915248;29;20712;-78
2023/09/08 11:49:54;;;;;;;6.17;5.57;;;;;;;;;;4909489;29;20187;-78
2023/09/08 11:52:23;;;;;;;8.23;6.20;;;;;;;;;;4916011;29;20390;-80
2023/09/08 11:54:49;;;;;;;7.70;6.20;;;;;;;;;;4915856;29;20297;-80
2023/09/08 11:57:16;;;;;;;6.37;5.70;;;;;;;;;;4917685;29;20651;-80
2023/09/08 11:59:42;;;;;;;6.70;5.80;;;;;;;;;;4916370;29;20228;-76
2023/09/08 12:02:08;;;;;;;6.87;5.80;;;;;;;;;;4912659;29;20179;-77
2023/09/08 12:04:36;;;;;;;5.87;5.37;;;;;;;;;;4918269;29;20216;-80
2023/09/08 12:07:02;;;;;;;6.53;5.50;;;;;;;;;;4920636;29;20199;-81
2023/09/08 12:09:28;;;;;;;6.20;5.60;;;;;;;;;;4921936;29;20223;-83
2023/09/08 12:11:54;;;;;;;6.03;5.43;;;;;;;;;;4899755;29;20219;-79
2023/09/08 12:14:21;;;;;;;6.07;5.47;;;;;;;;;;4915955;29;20204;-79
2023/09/08 12:16:47;;;;;;;8.37;5.23;;;;;;;;;;4913482;29;20565;-79
2023/09/08 12:19:30;;;;;;;6.03;5.23;;;;;;;;;;4914711;29;20198;-78
2023/09/08 12:21:58;;;;;;;5.80;5.30;;;;;;;;;;4914012;29;20797;-77
2023/09/08 12:24:42;;;;;;;6.27;5.33;;;;;;;;;;4908367;29;20220;-78
2023/09/08 12:27:09;;;;;;;6.23;5.30;;;;;;;;;;4915482;29;20202;-78
2023/09/08 12:29:35;;;;;;;6.00;5.40;;;;;;;;;;4909802;29;20290;-78
2023/09/08 12:32:02;;;;;;;6.00;5.50;;;;;;;;;;4934334;29;20223;-79
2023/09/08 12:34:28;;;;;;;5.70;5.17;;;;;;;;;;4911187;29;20188;-78
2023/09/08 12:36:55;;;;;;;5.57;5.07;;;;;;;;;;4905867;29;20192;-83
2023/09/08 12:39:22;;;;;;;5.77;5.17;;;;;;;;;;4909455;29;20188;-80
2023/09/08 12:41:48;;;;;;;5.80;5.40;;;;;;;;;;4911180;29;20202;-80
2023/09/08 12:44:14;;;;;;;5.20;4.70;;;;;;;;;;4910581;29;20187;-80
2023/09/08 12:46:40;;;;;;;5.33;4.80;;;;;;;;;;4910579;29;20680;-80
2023/09/08 12:49:06;;;;;;;7.93;5.27;;;;;;;;;;4919361;29;20277;-80
2023/09/08 12:51:32;;;;;;;5.33;4.87;;;;;;;;;;4917779;29;20214;-80
2023/09/08 12:53:58;;;;;;;5.70;5.03;;;;;;;;;;4922707;29;20202;-80
2023/09/08 12:56:24;;;;;;;6.67;5.50;;;;;;;;;;4907700;29;20212;-80
2023/09/08 12:58:50;;;;;;;6.80;4.87;;;;;;;;;;4914441;29;20191;-80
2023/09/08 13:01:17;;;;;;;6.17;5.20;;;;;;;;;;4915493;29;20183;-80
2023/09/08 13:03:43;;;;;;;5.77;5.07;;;;;;;;;;4917815;29;20192;-80
2023/09/08 13:06:09;;;;;;;5.70;4.77;;;;;;;;;;4911934;29;20213;-80
2023/09/08 13:08:35;;;;;;;5.00;4.50;;;;;;;;;;4914825;29;20192;-79
2023/09/08 13:11:01;;;;;;;5.20;4.70;;;;;;;;;;4913766;29;20191;-81
2023/09/08 13:13:29;;;;;;;5.60;4.70;;;;;;;;;;4908998;29;20187;-80
2023/09/08 13:15:55;;;;;;;5.13;4.53;;;;;;;;;;4916760;29;20333;-81
2023/09/08 13:18:21;;;;;;;6.53;4.70;;;;;;;;;;4910836;29;20533;-80
2023/09/08 13:20:47;;;;;;;4.90;4.50;;;;;;;;;;4922543;29;20198;-80
2023/09/08 13:23:13;;;;;;;5.43;4.87;;;;;;;;;;4921193;29;20714;-80
2023/09/08 13:25:41;;;;;;;8.13;4.90;;;;;;;;;;4910719;29;20268;-80
2023/09/08 13:28:08;;;;;;;6.53;4.45;;;;;;;;;;4913382;29;20685;-80
2023/09/08 13:30:34;;;;;;;4.50;4.20;;;;;;;;;;4909466;29;20691;-82
2023/09/08 13:33:00;;;;;;;6.05;4.05;;;;;;;;;;4915880;29;20188;-83
2023/09/08 13:35:26;;;;;;;5.97;4.20;;;;;;;;;;4912219;29;20225;-78
2023/09/08 13:37:53;;;;;;;5.30;3.90;;;;;;;;;;4917342;29;20197;-78
2023/09/08 13:40:19;;;;;;;4.97;4.32;;;;;;;;;;4911282;29;20215;-77
2023/09/08 13:42:45;;;;;;;4.30;4.00;;;;;;;;;;4910230;29;20560;-77
2023/09/08 13:45:11;;;;;;;5.07;4.57;;;;;;;;;;4918450;29;20220;-77
2023/09/08 13:47:38;;;;;;;5.28;4.03;;;;;;;;;;4910334;29;20561;-79
2023/09/08 13:50:04;;;;;;;4.60;4.30;;;;;;;;;;4918623;29;20182;-76
2023/09/08 13:52:30;;;;;;;4.57;4.18;;;;;;;;;;4915947;29;20195;-78
2023/09/08 13:54:56;;;;;;;5.32;4.38;;;;;;;;;;4909567;29;20709;-77
2023/09/08 13:57:25;;;;;;;4.63;4.22;;;;;;;;;;4915505;29;20234;-79
2023/09/08 13:59:52;;;;;;;4.65;4.18;;;;;;;;;;4909883;29;21309;-76
2023/09/08 14:02:18;;;;;;;5.13;4.10;;;;;;;;;;4905586;29;20234;-76
2023/09/08 14:04:44;;;;;;;5.10;4.40;;;;;;;;;;4914407;29;20207;-79
2023/09/08 14:07:10;;;;;;;5.28;4.00;;;;;;;;;;4912933;29;20181;-79
2023/09/08 14:09:36;;;;;;;4.40;4.00;;;;;;;;;;4907788;29;20198;-78
2023/09/08 14:12:03;;;;;;;4.70;4.30;;;;;;;;;;4911884;29;20191;-79
2023/09/08 14:14:29;;;;;;;6.18;3.88;;;;;;;;;;4907348;29;20294;-74
2023/09/08 14:16:55;;;;;;;6.43;4.20;;;;;;;;;;4913153;29;20194;-74
2023/09/08 14:19:21;;;;;;;4.40;4.00;;;;;;;;;;4908126;29;20556;-76
2023/09/08 14:21:47;;;;;;;4.15;3.85;;;;;;;;;;4907452;29;20202;-74
2023/09/08 14:24:13;;;;;;;5.10;4.20;;;;;;;;;;4909719;29;20175;-75
2023/09/08 14:26:40;;;;;;;4.30;4.00;;;;;;;;;;4902363;29;20212;-74
2023/09/08 14:29:06;;;;;;;4.88;4.10;;;;;;;;;;4907836;29;20285;-76
2023/09/08 14:31:32;;;;;;;4.72;3.88;;;;;;;;;;4913637;29;20191;-76
2023/09/08 14:33:58;;;;;;;5.47;4.25;;;;;;;;;;4909735;29;20178;-74
2023/09/08 14:36:24;;;;;;;4.53;4.13;;;;;;;;;;4913078;29;20229;-73
2023/09/08 14:38:50;;;;;;;4.10;3.80;;;;;;;;;;4912947;29;20584;-74
2023/09/08 14:41:17;;;;;;;6.38;3.90;;;;;;;;;;4913513;29;20203;-74